createdAt,value
2018-10-05T00:00:08.574Z,7.10
2018-10-05T00:02:37.042Z,7.10
2018-10-05T00:05:05.535Z,7.10
2018-10-05T00:07:33.970Z,7.10
2018-10-05T00:10:02.448Z,7.10
2018-10-05T00:12:30.904Z,7.00
2018-10-05T00:14:59.355Z,7.00
2018-10-05T00:17:27.801Z,7.00
2018-10-05T00:19:56.253Z,6.90
2018-10-05T00:22:24.814Z,6.90
2018-10-05T00:24:53.288Z,6.90
2018-10-05T00:27:21.734Z,6.90
2018-10-05T00:29:50.202Z,6.90
2018-10-05T00:32:18.656Z,6.90
2018-10-05T00:34:47.108Z,6.90
2018-10-05T00:37:15.570Z,6.90
2018-10-05T00:39:44.066Z,6.80
2018-10-05T00:42:12.490Z,6.70
2018-10-05T00:44:40.937Z,6.70
2018-10-05T00:47:09.439Z,6.70
2018-10-05T00:49:37.958Z,6.60
2018-10-05T00:52:06.430Z,6.70
2018-10-05T00:54:34.902Z,6.70
2018-10-05T00:57:03.350Z,6.70
2018-10-05T00:59:31.807Z,6.60
2018-10-05T01:02:00.269Z,6.60
2018-10-05T01:04:28.689Z,6.60
2018-10-05T01:06:57.144Z,6.60
2018-10-05T01:09:31.508Z,6.60
2018-10-05T01:11:59.978Z,6.50
2018-10-05T01:14:28.407Z,6.50
2018-10-05T01:16:57.296Z,6.40
2018-10-05T01:19:25.786Z,6.30
2018-10-05T01:21:54.295Z,6.30
2018-10-05T01:24:22.718Z,6.30
2018-10-05T01:26:51.240Z,6.30
2018-10-05T01:29:19.715Z,6.30
2018-10-05T01:31:48.314Z,6.30
2018-10-05T01:34:16.762Z,6.30
2018-10-05T01:36:45.254Z,6.40
2018-10-05T01:39:13.706Z,6.40
2018-10-05T01:41:42.159Z,6.50
2018-10-05T01:44:10.594Z,6.40
2018-10-05T01:46:39.070Z,6.40
2018-10-05T01:49:07.543Z,6.40
2018-10-05T01:51:37.097Z,6.40
2018-10-05T01:54:06.255Z,6.40
2018-10-05T01:56:35.399Z,6.40
2018-10-05T01:59:04.158Z,6.40
2018-10-05T02:01:33.227Z,6.30
2018-10-05T02:04:01.803Z,6.20
2018-10-05T02:06:30.398Z,6.10
2018-10-05T02:08:58.855Z,6.10
2018-10-05T02:11:27.338Z,6.10
2018-10-05T02:13:55.766Z,6.10
2018-10-05T02:16:24.225Z,6.10
2018-10-05T02:18:52.696Z,6.00
2018-10-05T02:21:21.175Z,6.00
2018-10-05T02:23:49.615Z,6.00
2018-10-05T02:26:18.087Z,6.00
2018-10-05T02:28:46.628Z,6.10
2018-10-05T02:31:15.132Z,6.00
2018-10-05T02:33:43.628Z,6.00
2018-10-05T02:36:12.090Z,6.00
2018-10-05T02:38:40.594Z,6.00
2018-10-05T02:41:09.046Z,6.00
2018-10-05T02:43:37.555Z,6.00
2018-10-05T02:46:06.123Z,5.90
2018-10-05T02:48:34.757Z,5.90
2018-10-05T02:51:03.279Z,5.90
2018-10-05T02:53:31.817Z,5.90
2018-10-05T02:56:00.245Z,5.90
2018-10-05T02:58:28.703Z,5.90
2018-10-05T03:01:08.320Z,5.90
2018-10-05T03:03:36.786Z,5.90
2018-10-05T03:06:05.252Z,5.90
2018-10-05T03:08:33.702Z,5.90
2018-10-05T03:11:02.161Z,5.90
2018-10-05T03:13:30.640Z,5.90
2018-10-05T03:15:59.074Z,6.00
2018-10-05T03:18:27.540Z,6.00
2018-10-05T03:20:56.033Z,5.90
2018-10-05T03:23:24.529Z,5.90
2018-10-05T03:25:52.983Z,5.80
2018-10-05T03:28:21.483Z,5.80
2018-10-05T03:30:49.934Z,5.90
2018-10-05T03:33:18.380Z,5.90
2018-10-05T03:35:46.823Z,5.90
2018-10-05T03:38:15.322Z,5.80
2018-10-05T03:40:44.002Z,5.80
2018-10-05T03:43:12.508Z,5.60
2018-10-05T03:45:40.986Z,5.60
2018-10-05T03:48:10.333Z,5.60
2018-10-05T03:50:38.774Z,5.60
2018-10-05T03:53:07.370Z,5.60
2018-10-05T03:55:35.883Z,5.70
2018-10-05T03:58:04.442Z,5.80
2018-10-05T04:00:32.954Z,5.80
2018-10-05T04:03:01.730Z,5.80
2018-10-05T04:05:30.214Z,5.80
2018-10-05T04:07:58.782Z,5.70
2018-10-05T04:10:27.338Z,5.60
2018-10-05T04:12:55.842Z,5.60
2018-10-05T04:15:24.358Z,5.60
2018-10-05T04:17:52.859Z,5.60
2018-10-05T04:20:21.342Z,5.60
2018-10-05T04:22:49.826Z,5.60
2018-10-05T04:25:18.278Z,5.60
2018-10-05T04:27:46.758Z,5.60
2018-10-05T04:30:15.295Z,5.60
2018-10-05T04:32:43.848Z,5.60
2018-10-05T04:35:12.419Z,5.60
2018-10-05T04:37:40.934Z,5.60
2018-10-05T04:40:09.512Z,5.50
2018-10-05T04:42:38.003Z,5.50
2018-10-05T04:45:06.542Z,5.50
2018-10-05T04:47:34.985Z,5.40
2018-10-05T04:50:03.533Z,5.40
2018-10-05T04:52:32.051Z,5.40
2018-10-05T04:55:00.580Z,5.40
2018-10-05T04:57:29.094Z,5.40
2018-10-05T04:59:57.592Z,5.40
2018-10-05T05:02:26.127Z,5.40
2018-10-05T05:04:54.641Z,5.40
2018-10-05T05:07:23.240Z,5.40
2018-10-05T05:09:51.706Z,5.50
2018-10-05T05:12:20.184Z,5.50
2018-10-05T05:14:48.635Z,5.50
2018-10-05T05:17:17.095Z,5.60
2018-10-05T05:19:45.663Z,5.50
2018-10-05T05:22:14.161Z,5.40
2018-10-05T05:24:42.639Z,5.30
2018-10-05T05:27:11.119Z,5.30
2018-10-05T05:29:39.606Z,5.30
2018-10-05T05:32:08.118Z,5.40
2018-10-05T05:34:36.660Z,5.40
2018-10-05T05:37:05.328Z,5.40
2018-10-05T05:39:33.869Z,5.50
2018-10-05T05:42:02.351Z,5.40
2018-10-05T05:44:30.843Z,5.40
2018-10-05T05:46:59.418Z,5.40
2018-10-05T05:49:27.921Z,5.40
2018-10-05T05:51:56.456Z,5.50
2018-10-05T05:54:25.076Z,5.40
2018-10-05T05:56:53.512Z,5.40
2018-10-05T05:59:22.023Z,5.40
2018-10-05T06:01:50.542Z,5.50
2018-10-05T06:04:19.049Z,5.60
2018-10-05T06:06:47.490Z,5.60
2018-10-05T06:09:16.014Z,5.50
2018-10-05T06:11:44.495Z,5.60
2018-10-05T06:14:12.999Z,5.60
2018-10-05T06:16:41.442Z,5.70
2018-10-05T06:19:09.906Z,5.80
2018-10-05T06:21:38.523Z,5.80
2018-10-05T06:24:06.974Z,5.80
2018-10-05T06:26:35.456Z,5.90
2018-10-05T06:29:03.990Z,6.00
2018-10-05T06:31:32.494Z,6.10
2018-10-05T06:34:00.990Z,6.20
2018-10-05T06:36:29.431Z,6.30
2018-10-05T06:38:57.911Z,6.30
2018-10-05T06:41:26.362Z,6.40
2018-10-05T06:43:54.789Z,6.50
2018-10-05T06:46:23.271Z,6.60
2018-10-05T06:48:51.734Z,6.70
2018-10-05T06:51:20.218Z,6.90
2018-10-05T06:53:48.683Z,7.00
2018-10-05T06:56:17.143Z,7.10
2018-10-05T06:58:45.578Z,7.40
2018-10-05T07:01:14.098Z,7.50
2018-10-05T07:03:42.510Z,7.70
2018-10-05T07:06:10.975Z,7.90
2018-10-05T07:08:39.423Z,8.10
2018-10-05T07:11:07.936Z,8.30
2018-10-05T07:13:36.394Z,8.50
2018-10-05T07:16:04.854Z,8.60
2018-10-05T07:18:33.276Z,8.80
2018-10-05T07:21:01.767Z,8.90
2018-10-05T07:23:30.211Z,9.00
2018-10-05T07:25:58.716Z,9.30
2018-10-05T07:28:27.181Z,9.60
2018-10-05T07:30:55.627Z,9.80
2018-10-05T07:33:24.054Z,10.00
2018-10-05T07:35:52.534Z,10.10
2018-10-05T07:38:20.975Z,10.10
2018-10-05T07:40:49.432Z,10.30
2018-10-05T07:43:17.877Z,10.50
2018-10-05T07:45:46.341Z,10.70
2018-10-05T07:48:14.774Z,10.90
2018-10-05T07:50:43.230Z,11.20
2018-10-05T07:53:11.671Z,11.40
2018-10-05T07:55:40.142Z,11.70
2018-10-05T07:58:08.566Z,11.90
2018-10-05T08:00:37.038Z,12.10
2018-10-05T08:03:05.498Z,12.40
2018-10-05T08:05:33.962Z,12.60
2018-10-05T08:08:02.387Z,12.80
2018-10-05T08:10:30.833Z,13.10
2018-10-05T08:12:59.247Z,13.40
2018-10-05T08:15:27.717Z,13.60
2018-10-05T08:17:56.152Z,13.80
2018-10-05T08:20:24.619Z,13.90
2018-10-05T08:22:53.074Z,14.10
2018-10-05T08:25:21.523Z,14.40
2018-10-05T08:27:49.983Z,14.70
2018-10-05T08:30:18.394Z,15.00
2018-10-05T08:32:46.862Z,15.30
2018-10-05T08:35:15.298Z,15.60
2018-10-05T08:37:43.774Z,16.10
2018-10-05T08:40:12.291Z,16.40
2018-10-05T08:42:40.717Z,16.40
2018-10-05T08:45:09.145Z,17.10
2018-10-05T08:47:37.589Z,17.80
2018-10-05T08:50:06.082Z,18.00
2018-10-05T08:52:34.522Z,17.80
2018-10-05T08:55:02.942Z,17.40
2018-10-05T08:57:31.755Z,18.30
2018-10-05T09:00:00.254Z,19.20
2018-10-05T09:02:28.650Z,19.80
2018-10-05T09:04:57.070Z,20.30
2018-10-05T09:07:25.510Z,20.60
2018-10-05T09:09:53.945Z,20.90
2018-10-05T09:12:22.379Z,21.10
2018-10-05T09:14:50.799Z,21.00
2018-10-05T09:17:19.262Z,21.10
2018-10-05T09:19:47.676Z,21.90
2018-10-05T09:22:16.158Z,20.90
2018-10-05T09:24:44.596Z,21.50
2018-10-05T09:27:13.054Z,20.70
2018-10-05T09:29:41.495Z,20.10
2018-10-05T09:32:09.962Z,20.60
2018-10-05T09:34:38.387Z,21.90
2018-10-05T09:37:06.870Z,22.90
2018-10-05T09:39:35.294Z,23.10
2018-10-05T09:42:03.754Z,23.40
2018-10-05T09:44:32.177Z,23.20
2018-10-05T09:47:00.594Z,22.50
2018-10-05T09:49:29.038Z,23.40
2018-10-05T09:51:57.466Z,24.20
2018-10-05T09:54:25.917Z,25.00
2018-10-05T09:56:54.334Z,25.70
2018-10-05T09:59:22.782Z,26.10
2018-10-05T10:01:56.498Z,26.20
2018-10-05T10:04:25.350Z,26.50
2018-10-05T10:06:54.317Z,26.80
2018-10-05T10:09:22.774Z,27.20
2018-10-05T10:11:51.209Z,27.40
2018-10-05T10:14:19.652Z,25.20
2018-10-05T10:16:48.113Z,25.00
2018-10-05T10:19:16.582Z,25.90
2018-10-05T10:21:45.133Z,27.40
2018-10-05T10:24:13.966Z,28.70
2018-10-05T10:26:42.657Z,28.70
2018-10-05T10:29:11.222Z,28.20
2018-10-05T10:31:40.487Z,29.20
2018-10-05T10:34:09.036Z,29.30
2018-10-05T10:36:37.515Z,29.90
2018-10-05T10:39:07.537Z,29.00
2018-10-05T10:41:36.018Z,25.90
2018-10-05T10:44:04.541Z,25.70
2018-10-05T10:46:33.053Z,25.40
2018-10-05T10:49:01.774Z,26.50
2018-10-05T10:51:30.265Z,26.80
2018-10-05T10:53:58.828Z,27.40
2018-10-05T10:56:27.310Z,28.70
2018-10-05T10:58:55.879Z,27.80
2018-10-05T11:01:24.361Z,27.50
2018-10-05T11:03:52.868Z,26.00
2018-10-05T11:06:21.259Z,28.10
2018-10-05T11:08:49.718Z,27.90
2018-10-05T11:11:18.129Z,26.80
2018-10-05T11:13:46.586Z,27.30
2018-10-05T11:16:15.173Z,26.70
2018-10-05T11:18:43.670Z,27.70
2018-10-05T11:21:12.211Z,27.40
2018-10-05T11:23:40.638Z,27.40
2018-10-05T11:26:09.094Z,27.50
2018-10-05T11:28:37.560Z,27.20
2018-10-05T11:31:06.076Z,26.30
2018-10-05T11:33:34.566Z,26.60
2018-10-05T11:36:03.279Z,27.40
2018-10-05T11:38:31.774Z,27.60
2018-10-05T11:41:00.222Z,27.60
2018-10-05T11:43:28.766Z,27.80
2018-10-05T11:45:57.322Z,27.80
2018-10-05T11:48:26.540Z,28.30
2018-10-05T11:50:55.066Z,29.20
2018-10-05T11:53:23.537Z,28.60
2018-10-05T11:55:52.012Z,27.60
2018-10-05T11:58:20.450Z,27.30
2018-10-05T12:00:48.928Z,27.50
2018-10-05T12:03:17.622Z,27.30
2018-10-05T12:05:46.251Z,26.70
2018-10-05T12:08:14.682Z,27.20
2018-10-05T12:10:43.173Z,27.50
2018-10-05T12:13:11.554Z,26.80
2018-10-05T12:15:40.019Z,26.30
2018-10-05T12:18:08.557Z,26.00
2018-10-05T12:20:37.022Z,26.20
2018-10-05T12:23:05.471Z,26.30
2018-10-05T12:25:33.922Z,27.30
2018-10-05T12:28:02.353Z,28.20
2018-10-05T12:30:30.823Z,28.90
2018-10-05T12:32:59.233Z,27.70
2018-10-05T12:35:27.667Z,27.70
2018-10-05T12:37:56.095Z,27.80
2018-10-05T12:40:24.534Z,27.00
2018-10-05T12:42:53.004Z,26.00
2018-10-05T12:45:21.478Z,26.60
2018-10-05T12:47:49.934Z,27.20
2018-10-05T12:50:18.406Z,28.20
2018-10-05T12:52:46.822Z,28.70
2018-10-05T12:55:15.264Z,28.90
2018-10-05T12:57:43.780Z,29.60
2018-10-05T13:00:12.230Z,30.00
2018-10-05T13:02:40.680Z,28.80
2018-10-05T13:05:09.195Z,28.00
2018-10-05T13:07:37.638Z,28.00
2018-10-05T13:10:06.070Z,28.80
2018-10-05T13:12:34.531Z,29.30
2018-10-05T13:15:02.987Z,29.60
2018-10-05T13:17:31.430Z,30.70
2018-10-05T13:19:59.974Z,29.90
2018-10-05T13:22:28.461Z,30.10
2018-10-05T13:24:56.891Z,31.40
2018-10-05T13:27:25.339Z,32.30
2018-10-05T13:29:54.054Z,31.20
2018-10-05T13:32:22.502Z,30.80
2018-10-05T13:34:50.931Z,31.00
2018-10-05T13:37:19.396Z,31.60
2018-10-05T13:39:47.820Z,31.60
2018-10-05T13:42:16.652Z,30.10
2018-10-05T13:44:45.102Z,30.10
2018-10-05T13:47:13.795Z,31.80
2018-10-05T13:49:43.199Z,30.40
2018-10-05T13:52:11.678Z,30.10
2018-10-05T13:54:40.140Z,30.90
2018-10-05T13:57:08.607Z,32.30
2018-10-05T13:59:37.014Z,33.40
2018-10-05T14:02:05.531Z,30.60
2018-10-05T14:04:34.006Z,30.90
2018-10-05T14:07:02.534Z,31.10
2018-10-05T14:09:30.947Z,31.70
2018-10-05T14:11:59.719Z,31.90
2018-10-05T14:14:28.217Z,31.00
2018-10-05T14:16:56.686Z,31.70
2018-10-05T14:19:25.334Z,31.10
2018-10-05T14:21:53.914Z,29.70
2018-10-05T14:24:22.397Z,30.60
2018-10-05T14:26:50.893Z,31.00
2018-10-05T14:29:19.337Z,29.60
2018-10-05T14:31:47.802Z,29.70
2018-10-05T14:34:16.230Z,29.90
2018-10-05T14:36:44.694Z,29.10
2018-10-05T14:39:13.139Z,27.60
2018-10-05T14:41:41.594Z,25.80
2018-10-05T14:44:10.022Z,25.00
2018-10-05T14:46:38.485Z,24.30
2018-10-05T14:49:06.914Z,23.80
2018-10-05T14:51:35.358Z,23.60
2018-10-05T14:54:03.773Z,23.60
2018-10-05T14:56:32.234Z,23.50
2018-10-05T14:59:00.651Z,23.10
2018-10-05T15:01:29.080Z,22.90
2018-10-05T15:03:57.511Z,22.60
2018-10-05T15:06:26.079Z,22.50
2018-10-05T15:08:55.131Z,22.30
2018-10-05T15:11:23.638Z,22.30
2018-10-05T15:13:52.075Z,22.20
2018-10-05T15:16:20.489Z,22.20
2018-10-05T15:18:48.937Z,22.20
2018-10-05T15:21:17.425Z,22.60
2018-10-05T15:23:45.850Z,23.00
2018-10-05T15:26:14.265Z,23.00
2018-10-05T15:28:42.714Z,22.60
2018-10-05T15:31:11.137Z,22.10
2018-10-05T15:33:39.577Z,21.90
2018-10-05T15:36:08.086Z,21.60
2018-10-05T15:38:36.521Z,21.50
2018-10-05T15:41:05.034Z,21.40
2018-10-05T15:43:33.666Z,21.30
2018-10-05T15:46:07.470Z,21.30
2018-10-05T15:48:36.150Z,21.30
2018-10-05T15:51:05.015Z,21.20
2018-10-05T15:53:34.146Z,21.10
2018-10-05T15:56:03.002Z,21.10
2018-10-05T15:58:31.486Z,21.00
2018-10-05T16:00:59.901Z,20.90
2018-10-05T16:03:28.350Z,20.90
2018-10-05T16:05:56.855Z,20.80
2018-10-05T16:08:25.249Z,20.70
2018-10-05T16:10:53.661Z,20.50
2018-10-05T16:13:22.097Z,20.30
2018-10-05T16:15:50.532Z,20.10
2018-10-05T16:18:19.012Z,20.10
2018-10-05T16:20:47.453Z,19.90
2018-10-05T16:23:15.920Z,19.80
2018-10-05T16:25:44.338Z,19.70
2018-10-05T16:28:12.778Z,19.70
2018-10-05T16:30:41.184Z,19.60
2018-10-05T16:33:09.637Z,19.40
2018-10-05T16:35:38.053Z,19.20
2018-10-05T16:38:06.654Z,19.00
2018-10-05T16:40:35.073Z,18.90
2018-10-05T16:43:03.537Z,18.70
2018-10-05T16:45:32.217Z,18.60
2018-10-05T16:48:00.646Z,18.50
2018-10-05T16:50:29.094Z,18.40
2018-10-05T16:52:57.538Z,18.20
2018-10-05T16:55:25.981Z,18.10
2018-10-05T16:57:54.393Z,18.00
2018-10-05T17:00:22.907Z,17.90
2018-10-05T17:02:51.322Z,17.70
2018-10-05T17:05:19.763Z,17.60
2018-10-05T17:07:48.191Z,17.50
2018-10-05T17:10:16.670Z,17.40
2018-10-05T17:12:45.074Z,17.30
2018-10-05T17:15:13.549Z,17.10
2018-10-05T17:17:41.987Z,17.10
2018-10-05T17:20:10.456Z,16.90
2018-10-05T17:22:38.923Z,16.80
2018-10-05T17:25:07.426Z,16.70
2018-10-05T17:27:35.866Z,16.60
2018-10-05T17:30:04.783Z,16.40
2018-10-05T17:32:33.234Z,16.30
2018-10-05T17:35:01.729Z,16.20
2018-10-05T17:37:30.138Z,16.10
2018-10-05T17:39:58.590Z,16.10
2018-10-05T17:42:27.059Z,16.10
2018-10-05T17:44:55.582Z,15.90
2018-10-05T17:47:23.994Z,15.70
2018-10-05T17:49:52.470Z,15.70
2018-10-05T17:52:20.934Z,15.70
2018-10-05T17:54:49.601Z,15.50
2018-10-05T17:57:18.294Z,15.40
2018-10-05T17:59:46.781Z,15.30
2018-10-05T18:02:15.230Z,15.20
2018-10-05T18:04:43.720Z,15.10
2018-10-05T18:07:12.235Z,15.10
2018-10-05T18:09:40.761Z,15.00
2018-10-05T18:12:09.391Z,15.00
2018-10-05T18:14:37.908Z,14.90
2018-10-05T18:17:06.753Z,14.80
2018-10-05T18:19:35.197Z,14.70
2018-10-05T18:22:03.677Z,14.60
2018-10-05T18:24:32.194Z,14.60
2018-10-05T18:27:00.663Z,14.40
2018-10-05T18:29:29.094Z,14.30
2018-10-05T18:31:57.581Z,14.30
2018-10-05T18:34:26.035Z,14.20
2018-10-05T18:36:54.521Z,14.10
2018-10-05T18:39:22.982Z,14.00
2018-10-05T18:41:51.436Z,14.00
2018-10-05T18:44:19.946Z,14.00
2018-10-05T18:46:48.346Z,13.90
2018-10-05T18:49:16.843Z,13.80
2018-10-05T18:51:45.313Z,13.70
2018-10-05T18:54:13.748Z,13.70
2018-10-05T18:56:53.559Z,13.60
2018-10-05T18:59:22.005Z,13.50
2018-10-05T19:01:50.486Z,13.50
2018-10-05T19:04:18.935Z,13.40
2018-10-05T19:06:47.371Z,13.30
2018-10-05T19:09:15.810Z,13.30
2018-10-05T19:11:44.292Z,13.20
2018-10-05T19:14:12.729Z,13.20
2018-10-05T19:16:41.298Z,13.20
2018-10-05T19:19:09.723Z,13.20
2018-10-05T19:21:38.210Z,13.20
2018-10-05T19:24:06.706Z,13.20
2018-10-05T19:26:35.338Z,13.10
2018-10-05T19:29:03.653Z,13.10
2018-10-05T19:31:32.090Z,13.00
2018-10-05T19:34:01.344Z,12.90
2018-10-05T19:36:29.849Z,12.90
2018-10-05T19:38:58.280Z,12.80
2018-10-05T19:41:26.789Z,12.80
2018-10-05T19:43:55.244Z,12.90
2018-10-05T19:46:23.749Z,12.90
2018-10-05T19:48:52.199Z,12.80
2018-10-05T19:51:20.662Z,12.80
2018-10-05T19:53:49.187Z,12.70
2018-10-05T19:56:17.595Z,12.70
2018-10-05T19:58:46.093Z,12.70
2018-10-05T20:01:14.574Z,12.70
2018-10-05T20:03:43.229Z,12.60
2018-10-05T20:06:11.717Z,12.60
2018-10-05T20:08:40.192Z,12.60
2018-10-05T20:11:08.679Z,12.50
2018-10-05T20:13:37.183Z,12.50
2018-10-05T20:16:05.663Z,12.40
2018-10-05T20:18:34.217Z,12.40
2018-10-05T20:21:02.746Z,12.30
2018-10-05T20:23:31.240Z,12.30
2018-10-05T20:25:59.698Z,12.20
2018-10-05T20:28:28.191Z,12.20
2018-10-05T20:30:56.655Z,12.10
2018-10-05T20:33:25.180Z,12.00
2018-10-05T20:35:53.813Z,12.00
2018-10-05T20:38:22.216Z,11.90
2018-10-05T20:40:50.632Z,11.90
2018-10-05T20:43:19.083Z,11.90
2018-10-05T20:45:47.527Z,11.90
2018-10-05T20:48:16.004Z,11.90
2018-10-05T20:50:44.441Z,11.90
2018-10-05T20:53:12.923Z,11.90
2018-10-05T20:55:41.367Z,11.90
2018-10-05T20:58:09.861Z,11.90
2018-10-05T21:00:38.323Z,11.80
2018-10-05T21:03:06.933Z,11.80
2018-10-05T21:05:35.359Z,11.80
2018-10-05T21:08:03.848Z,11.80
2018-10-05T21:10:32.303Z,11.80
2018-10-05T21:13:00.746Z,11.70
2018-10-05T21:15:29.211Z,11.70
2018-10-05T21:17:57.677Z,11.70
2018-10-05T21:20:26.106Z,11.70
2018-10-05T21:22:54.614Z,11.60
2018-10-05T21:25:23.074Z,11.60
2018-10-05T21:27:51.523Z,11.60
2018-10-05T21:30:19.980Z,11.50
2018-10-05T21:32:48.454Z,11.50
2018-10-05T21:35:16.936Z,11.50
2018-10-05T21:37:45.402Z,11.50
2018-10-05T21:40:13.866Z,11.40
2018-10-05T21:42:42.278Z,11.40
2018-10-05T21:45:10.754Z,11.40
2018-10-05T21:47:39.202Z,11.40
2018-10-05T21:50:07.667Z,11.40
2018-10-05T21:52:36.222Z,11.40
2018-10-05T21:55:04.648Z,11.40
2018-10-05T21:57:33.086Z,11.40
2018-10-05T22:00:01.535Z,11.40
2018-10-05T22:02:34.721Z,11.30
2018-10-05T22:05:04.339Z,11.20
2018-10-05T22:07:32.803Z,11.20
2018-10-05T22:10:01.343Z,11.20
2018-10-05T22:12:30.322Z,11.20
2018-10-05T22:14:58.838Z,11.20
2018-10-05T22:17:27.298Z,11.20
2018-10-05T22:19:55.832Z,11.20
2018-10-05T22:22:24.502Z,11.20
2018-10-05T22:24:52.995Z,11.10
2018-10-05T22:27:21.449Z,11.10
2018-10-05T22:29:50.198Z,11.00
2018-10-05T22:32:18.659Z,11.00
2018-10-05T22:34:47.126Z,11.00
2018-10-05T22:37:15.566Z,11.00
2018-10-05T22:39:44.037Z,11.00
2018-10-05T22:42:12.518Z,11.00
2018-10-05T22:44:41.001Z,11.00
2018-10-05T22:47:09.449Z,11.00
2018-10-05T22:49:37.938Z,11.00
2018-10-05T22:52:06.514Z,10.90
2018-10-05T22:54:35.008Z,10.80
2018-10-05T22:57:03.477Z,10.70
2018-10-05T22:59:31.953Z,10.80
2018-10-05T23:02:00.411Z,10.70
2018-10-05T23:04:28.913Z,10.70
2018-10-05T23:06:57.362Z,10.70
2018-10-05T23:09:25.822Z,10.70
2018-10-05T23:11:54.281Z,10.80
2018-10-05T23:14:22.748Z,10.80
2018-10-05T23:16:51.172Z,10.80
2018-10-05T23:19:19.611Z,10.80
2018-10-05T23:21:48.109Z,10.80
2018-10-05T23:24:16.543Z,10.70
2018-10-05T23:26:45.037Z,10.70
2018-10-05T23:29:13.503Z,10.70
2018-10-05T23:31:41.954Z,10.60
2018-10-05T23:34:10.421Z,10.60
2018-10-05T23:36:39.258Z,10.60
2018-10-05T23:39:09.446Z,10.60
2018-10-05T23:41:37.897Z,10.60
2018-10-05T23:44:06.339Z,10.60
2018-10-05T23:46:35.906Z,10.60
2018-10-05T23:49:04.423Z,10.60
2018-10-05T23:51:32.923Z,10.50
2018-10-05T23:54:01.425Z,10.40
2018-10-05T23:56:29.915Z,10.40
2018-10-05T23:58:58.384Z,10.40
